createdAt,value
2023-03-05T00:00:02.779Z,2.30
2023-03-05T00:01:02.819Z,2.30
2023-03-05T00:02:03.721Z,2.30
2023-03-05T00:03:02.791Z,2.40
2023-03-05T00:04:02.831Z,2.30
2023-03-05T00:05:02.894Z,2.30
2023-03-05T00:06:02.989Z,2.30
2023-03-05T00:07:02.952Z,2.30
2023-03-05T00:08:03.104Z,2.30
2023-03-05T00:09:02.987Z,2.30
2023-03-05T00:10:03.052Z,2.30
2023-03-05T00:11:03.044Z,2.30
2023-03-05T00:12:03.059Z,2.30
2023-03-05T00:13:04.091Z,2.30
2023-03-05T00:14:03.161Z,2.30
2023-03-05T00:15:03.160Z,2.30
2023-03-05T00:16:03.289Z,2.30
2023-03-05T00:17:03.224Z,2.30
2023-03-05T00:18:03.312Z,2.30
2023-03-05T00:19:03.467Z,2.30
2023-03-05T00:20:03.416Z,2.30
2023-03-05T00:21:03.401Z,2.30
2023-03-05T00:22:03.427Z,2.30
2023-03-05T00:23:03.495Z,2.30
2023-03-05T00:24:03.508Z,2.30
2023-03-05T00:25:03.448Z,2.30
2023-03-05T00:26:03.399Z,2.30
2023-03-05T00:27:03.397Z,2.30
2023-03-05T00:28:03.498Z,2.30
2023-03-05T00:29:03.475Z,2.30
2023-03-05T00:30:03.548Z,2.30
2023-03-05T00:31:03.620Z,2.30
2023-03-05T00:32:03.630Z,2.30
2023-03-05T00:33:03.561Z,2.30
2023-03-05T00:34:02.620Z,2.30
2023-03-05T00:35:02.662Z,2.30
2023-03-05T00:36:02.777Z,2.30
2023-03-05T00:37:02.767Z,2.30
2023-03-05T00:38:02.699Z,2.30
2023-03-05T00:39:02.746Z,2.30
2023-03-05T00:40:02.853Z,2.30
2023-03-05T00:41:02.875Z,2.30
2023-03-05T00:42:02.955Z,2.30
2023-03-05T00:43:03.028Z,2.30
2023-03-05T00:44:03.109Z,2.30
2023-03-05T00:45:03.078Z,2.30
2023-03-05T00:46:03.122Z,2.30
2023-03-05T00:47:03.176Z,2.30
2023-03-05T00:48:03.169Z,2.30
2023-03-05T00:49:03.183Z,2.30
2023-03-05T00:50:03.194Z,2.30
2023-03-05T00:51:03.272Z,2.30
2023-03-05T00:52:03.361Z,2.30
2023-03-05T00:53:03.386Z,2.30
2023-03-05T00:54:03.311Z,2.30
2023-03-05T00:55:03.390Z,2.30
2023-03-05T00:56:03.438Z,2.30
2023-03-05T00:57:03.364Z,2.20
2023-03-05T00:58:03.509Z,2.20
2023-03-05T00:59:03.509Z,2.20
2023-03-05T01:00:03.607Z,2.20
2023-03-05T01:01:03.561Z,2.20
2023-03-05T01:02:03.629Z,2.20
2023-03-05T01:03:02.643Z,2.20
2023-03-05T01:04:02.720Z,2.20
2023-03-05T01:05:02.739Z,2.20
2023-03-05T01:06:02.755Z,2.20
2023-03-05T01:07:02.715Z,2.20
2023-03-05T01:08:02.671Z,2.20
2023-03-05T01:09:02.680Z,2.20
2023-03-05T01:10:02.854Z,2.10
2023-03-05T01:11:02.954Z,2.10
2023-03-05T01:12:02.874Z,2.10
2023-03-05T01:13:02.945Z,2.10
2023-03-05T01:14:02.866Z,2.10
2023-03-05T01:15:02.927Z,2.10
2023-03-05T01:16:03.023Z,2.10
2023-03-05T01:17:03.023Z,2.10
2023-03-05T01:18:03.162Z,2.10
2023-03-05T01:19:03.182Z,2.00
2023-03-05T01:20:03.155Z,2.00
2023-03-05T01:21:03.160Z,2.00
2023-03-05T01:22:03.134Z,2.00
2023-03-05T01:23:03.133Z,2.00
2023-03-05T01:24:03.088Z,2.00
2023-03-05T01:25:03.147Z,2.00
2023-03-05T01:26:03.110Z,2.00
2023-03-05T01:27:03.126Z,2.00
2023-03-05T01:28:03.137Z,2.00
2023-03-05T01:29:03.171Z,2.00
2023-03-05T01:30:03.239Z,2.00
2023-03-05T01:31:03.344Z,1.90
2023-03-05T01:32:03.295Z,1.90
2023-03-05T01:33:03.377Z,1.90
2023-03-05T01:34:03.329Z,1.90
2023-03-05T01:35:03.406Z,1.90
2023-03-05T01:36:03.511Z,1.90
2023-03-05T01:37:03.460Z,1.90
2023-03-05T01:38:03.377Z,1.90
2023-03-05T01:39:03.391Z,1.90
2023-03-05T01:40:03.399Z,1.90
2023-03-05T01:41:03.451Z,1.90
2023-03-05T01:42:03.418Z,1.90
2023-03-05T01:43:03.376Z,1.90
2023-03-05T01:44:03.422Z,1.90
2023-03-05T01:45:03.380Z,1.90
2023-03-05T01:46:03.306Z,1.90
2023-03-05T01:47:03.370Z,1.90
2023-03-05T01:48:03.384Z,1.90
2023-03-05T01:49:03.434Z,1.90
2023-03-05T01:50:03.515Z,1.90
2023-03-05T01:51:03.459Z,1.90
2023-03-05T01:52:03.420Z,1.90
2023-03-05T01:53:03.489Z,1.80
2023-03-05T01:54:03.427Z,1.80
2023-03-05T01:55:03.398Z,1.80
2023-03-05T01:56:03.562Z,1.80
2023-03-05T01:57:03.473Z,1.80
2023-03-05T01:58:03.544Z,1.80
2023-03-05T01:59:02.610Z,1.80
2023-03-05T02:00:02.699Z,1.80
2023-03-05T02:01:02.848Z,1.80
2023-03-05T02:02:02.737Z,1.80
2023-03-05T02:03:02.693Z,1.80
2023-03-05T02:04:02.827Z,1.80
2023-03-05T02:05:02.804Z,1.80
2023-03-05T02:06:02.836Z,1.80
2023-03-05T02:07:02.785Z,1.80
2023-03-05T02:08:02.830Z,1.80
2023-03-05T02:09:02.739Z,1.80
2023-03-05T02:10:02.769Z,1.80
2023-03-05T02:11:02.716Z,1.80
2023-03-05T02:12:02.828Z,1.80
2023-03-05T02:13:02.844Z,1.80
2023-03-05T02:14:02.857Z,1.80
2023-03-05T02:15:02.809Z,1.70
2023-03-05T02:16:02.896Z,1.70
2023-03-05T02:17:02.959Z,1.70
2023-03-05T02:18:02.990Z,1.70
2023-03-05T02:19:02.931Z,1.80
2023-03-05T02:20:02.822Z,1.70
2023-03-05T02:21:02.913Z,1.70
2023-03-05T02:22:02.998Z,1.70
2023-03-05T02:23:02.997Z,1.70
2023-03-05T02:24:02.904Z,1.80
2023-03-05T02:25:03.030Z,1.70
2023-03-05T02:26:03.070Z,1.70
2023-03-05T02:27:03.074Z,1.70
2023-03-05T02:28:03.048Z,1.70
2023-03-05T02:29:03.020Z,1.70
2023-03-05T02:30:03.098Z,1.70
2023-03-05T02:31:03.089Z,1.70
2023-03-05T02:32:03.174Z,1.70
2023-03-05T02:33:02.997Z,1.70
2023-03-05T02:34:03.002Z,1.70
2023-03-05T02:35:03.505Z,1.70
2023-03-05T02:36:03.508Z,1.70
2023-03-05T02:37:03.587Z,1.70
2023-03-05T02:38:03.522Z,1.70
2023-03-05T02:39:03.634Z,1.70
2023-03-05T02:40:03.575Z,1.70
2023-03-05T02:41:02.595Z,1.70
2023-03-05T02:42:02.677Z,1.70
2023-03-05T02:43:02.608Z,1.70
2023-03-05T02:44:02.664Z,1.70
2023-03-05T02:45:02.726Z,1.70
2023-03-05T02:46:02.845Z,1.70
2023-03-05T02:47:02.818Z,1.70
2023-03-05T02:48:02.763Z,1.70
2023-03-05T02:49:02.721Z,1.70
2023-03-05T02:50:02.724Z,1.70
2023-03-05T02:51:02.647Z,1.70
2023-03-05T02:52:02.624Z,1.60
2023-03-05T02:53:02.620Z,1.60
2023-03-05T02:54:02.691Z,1.60
2023-03-05T02:55:02.685Z,1.60
2023-03-05T02:56:02.666Z,1.70
2023-03-05T02:57:02.747Z,1.60
2023-03-05T02:58:02.708Z,1.60
2023-03-05T02:59:02.786Z,1.60
2023-03-05T03:00:02.878Z,1.60
2023-03-05T03:01:02.853Z,1.60
2023-03-05T03:02:02.834Z,1.60
2023-03-05T03:03:02.952Z,1.60
2023-03-05T03:04:02.955Z,1.60
2023-03-05T03:05:02.980Z,1.60
2023-03-05T03:06:02.941Z,1.60
2023-03-05T03:07:02.932Z,1.60
2023-03-05T03:08:02.982Z,1.60
2023-03-05T03:09:02.983Z,1.60
2023-03-05T03:10:03.041Z,1.60
2023-03-05T03:11:03.086Z,1.60
2023-03-05T03:12:03.132Z,1.60
2023-03-05T03:13:03.215Z,1.60
2023-03-05T03:14:03.224Z,1.60
2023-03-05T03:15:03.181Z,1.60
2023-03-05T03:16:03.218Z,1.60
2023-03-05T03:17:03.464Z,1.60
2023-03-05T03:18:03.419Z,1.60
2023-03-05T03:19:03.495Z,1.60
2023-03-05T03:20:03.536Z,1.60
2023-03-05T03:21:03.464Z,1.60
2023-03-05T03:22:03.418Z,1.60
2023-03-05T03:23:03.361Z,1.60
2023-03-05T03:24:03.402Z,1.60
2023-03-05T03:25:03.488Z,1.60
2023-03-05T03:26:03.516Z,1.60
2023-03-05T03:27:03.539Z,1.60
2023-03-05T03:28:02.626Z,1.60
2023-03-05T03:29:02.640Z,1.60
2023-03-05T03:30:02.676Z,1.60
2023-03-05T03:31:02.690Z,1.60
2023-03-05T03:32:02.735Z,1.60
2023-03-05T03:33:02.741Z,1.60
2023-03-05T03:34:02.771Z,1.60
2023-03-05T03:35:02.718Z,1.60
2023-03-05T03:36:02.638Z,1.60
2023-03-05T03:37:02.716Z,1.60
2023-03-05T03:38:02.716Z,1.60
2023-03-05T03:39:02.656Z,1.60
2023-03-05T03:40:02.642Z,1.60
2023-03-05T03:41:02.655Z,1.60
2023-03-05T03:42:02.759Z,1.60
2023-03-05T03:43:02.698Z,1.60
2023-03-05T03:44:02.747Z,1.60
2023-03-05T03:45:02.678Z,1.60
2023-03-05T03:46:02.727Z,1.60
2023-03-05T03:47:02.809Z,1.60
2023-03-05T03:48:02.792Z,1.60
2023-03-05T03:49:02.911Z,1.50
2023-03-05T03:50:02.873Z,1.50
2023-03-05T03:51:02.988Z,1.50
2023-03-05T03:52:02.953Z,1.50
2023-03-05T03:53:02.936Z,1.50
2023-03-05T03:54:02.995Z,1.50
2023-03-05T03:55:02.954Z,1.50
2023-03-05T03:56:03.050Z,1.50
2023-03-05T03:57:03.105Z,1.50
2023-03-05T03:58:03.935Z,1.50
2023-03-05T03:59:03.086Z,1.50
2023-03-05T04:00:03.048Z,1.50
2023-03-05T04:01:03.167Z,1.50
2023-03-05T04:02:03.237Z,1.50
2023-03-05T04:03:03.205Z,1.50
2023-03-05T04:04:03.257Z,1.50
2023-03-05T04:05:03.298Z,1.50
2023-03-05T04:06:03.252Z,1.50
2023-03-05T04:07:03.293Z,1.50
2023-03-05T04:08:03.520Z,1.50
2023-03-05T04:09:03.377Z,1.50
2023-03-05T04:10:03.283Z,1.50
2023-03-05T04:11:03.301Z,1.50
2023-03-05T04:12:03.282Z,1.50
2023-03-05T04:13:03.328Z,1.50
2023-03-05T04:14:03.334Z,1.50
2023-03-05T04:15:03.437Z,1.50
2023-03-05T04:16:03.459Z,1.50
2023-03-05T04:17:03.527Z,1.50
2023-03-05T04:18:03.516Z,1.50
2023-03-05T04:19:03.483Z,1.50
2023-03-05T04:20:03.461Z,1.50
2023-03-05T04:21:03.405Z,1.50
2023-03-05T04:22:03.482Z,1.50
2023-03-05T04:23:03.437Z,1.50
2023-03-05T04:24:03.570Z,1.50
2023-03-05T04:25:03.586Z,1.50
2023-03-05T04:26:03.470Z,1.50
2023-03-05T04:27:03.516Z,1.50
2023-03-05T04:28:03.507Z,1.50
2023-03-05T04:29:02.668Z,1.50
2023-03-05T04:30:02.746Z,1.50
2023-03-05T04:31:02.713Z,1.50
2023-03-05T04:32:02.734Z,1.50
2023-03-05T04:33:02.749Z,1.50
2023-03-05T04:34:02.816Z,1.50
2023-03-05T04:35:02.773Z,1.50
2023-03-05T04:36:02.831Z,1.50
2023-03-05T04:37:02.796Z,1.50
2023-03-05T04:38:02.814Z,1.50
2023-03-05T04:39:02.801Z,1.50
2023-03-05T04:40:02.830Z,1.50
2023-03-05T04:41:02.761Z,1.50
2023-03-05T04:42:02.785Z,1.50
2023-03-05T04:43:02.749Z,1.50
2023-03-05T04:44:02.726Z,1.50
2023-03-05T04:45:02.684Z,1.50
2023-03-05T04:46:02.730Z,1.50
2023-03-05T04:47:02.772Z,1.40
2023-03-05T04:48:02.860Z,1.40
2023-03-05T04:49:02.871Z,1.40
2023-03-05T04:50:02.914Z,1.40
2023-03-05T04:51:02.775Z,1.40
2023-03-05T04:52:02.917Z,1.40
2023-03-05T04:53:02.873Z,1.40
2023-03-05T04:54:02.981Z,1.40
2023-03-05T04:55:02.900Z,1.40
2023-03-05T04:56:03.050Z,1.40
2023-03-05T04:57:03.112Z,1.40
2023-03-05T04:58:03.106Z,1.40
2023-03-05T04:59:03.281Z,1.40
2023-03-05T05:00:03.178Z,1.40
2023-03-05T05:01:03.250Z,1.40
2023-03-05T05:02:03.346Z,1.40
2023-03-05T05:03:03.228Z,1.40
2023-03-05T05:04:03.269Z,1.40
2023-03-05T05:05:03.260Z,1.40
2023-03-05T05:06:03.233Z,1.40
2023-03-05T05:07:03.309Z,1.40
2023-03-05T05:08:03.285Z,1.40
2023-03-05T05:09:03.463Z,1.40
2023-03-05T05:10:03.393Z,1.40
2023-03-05T05:11:03.477Z,1.40
2023-03-05T05:12:03.463Z,1.40
2023-03-05T05:13:03.496Z,1.40
2023-03-05T05:14:03.429Z,1.40
2023-03-05T05:15:03.371Z,1.40
2023-03-05T05:16:03.484Z,1.40
2023-03-05T05:17:03.497Z,1.40
2023-03-05T05:18:03.426Z,1.40
2023-03-05T05:19:03.350Z,1.40
2023-03-05T05:20:03.298Z,1.40
2023-03-05T05:21:03.392Z,1.40
2023-03-05T05:22:03.397Z,1.40
2023-03-05T05:23:03.368Z,1.40
2023-03-05T05:24:03.377Z,1.40
2023-03-05T05:25:03.642Z,1.40
2023-03-05T05:26:02.653Z,1.40
2023-03-05T05:27:02.686Z,1.40
2023-03-05T05:28:02.647Z,1.40
2023-03-05T05:29:02.781Z,1.40
2023-03-05T05:30:02.730Z,1.40
2023-03-05T05:31:02.668Z,1.40
2023-03-05T05:32:02.753Z,1.40
2023-03-05T05:33:02.731Z,1.40
2023-03-05T05:34:02.872Z,1.40
2023-03-05T05:35:02.808Z,1.40
2023-03-05T05:36:02.867Z,1.40
2023-03-05T05:37:02.866Z,1.40
2023-03-05T05:38:02.760Z,1.40
2023-03-05T05:39:02.819Z,1.40
2023-03-05T05:40:02.835Z,1.40
2023-03-05T05:41:02.839Z,1.40
2023-03-05T05:42:02.912Z,1.40
2023-03-05T05:43:02.976Z,1.40
2023-03-05T05:44:02.991Z,1.40
2023-03-05T05:45:03.007Z,1.40
2023-03-05T05:46:03.090Z,1.40
2023-03-05T05:47:03.178Z,1.40
2023-03-05T05:48:03.021Z,1.40
2023-03-05T05:49:03.080Z,1.40
2023-03-05T05:50:03.151Z,1.40
2023-03-05T05:51:03.226Z,1.40
2023-03-05T05:52:03.398Z,1.40
2023-03-05T05:53:03.346Z,1.40
2023-03-05T05:54:03.454Z,1.40
2023-03-05T05:55:03.346Z,1.40
2023-03-05T05:56:03.362Z,1.40
2023-03-05T05:57:03.345Z,1.40
2023-03-05T05:58:03.409Z,1.40
2023-03-05T05:59:03.386Z,1.40
2023-03-05T06:00:03.469Z,1.40
2023-03-05T06:01:03.582Z,1.40
2023-03-05T06:02:03.773Z,1.40
2023-03-05T06:03:03.598Z,1.40
2023-03-05T06:04:03.552Z,1.40
2023-03-05T06:05:03.594Z,1.40
2023-03-05T06:06:02.724Z,1.40
2023-03-05T06:07:02.800Z,1.40
2023-03-05T06:08:02.763Z,1.40
2023-03-05T06:09:02.646Z,1.40
2023-03-05T06:10:02.626Z,1.40
2023-03-05T06:11:02.775Z,1.40
2023-03-05T06:12:02.810Z,1.40
2023-03-05T06:13:02.825Z,1.40
2023-03-05T06:14:02.832Z,1.40
2023-03-05T06:15:02.890Z,1.40
2023-03-05T06:16:02.983Z,1.40
2023-03-05T06:17:03.120Z,1.40
2023-03-05T06:18:03.022Z,1.40
2023-03-05T06:19:04.258Z,1.40
2023-03-05T06:20:02.968Z,1.40
2023-03-05T06:21:02.973Z,1.40
2023-03-05T06:22:03.064Z,1.40
2023-03-05T06:23:03.033Z,1.40
2023-03-05T06:24:03.075Z,1.40
2023-03-05T06:25:02.999Z,1.40
2023-03-05T06:26:02.924Z,1.40
2023-03-05T06:27:02.980Z,1.40
2023-03-05T06:28:02.885Z,1.40
2023-03-05T06:29:02.958Z,1.40
2023-03-05T06:30:02.985Z,1.40
2023-03-05T06:31:02.955Z,1.40
2023-03-05T06:32:03.129Z,1.40
2023-03-05T06:33:02.965Z,1.40
2023-03-05T06:34:03.020Z,1.50
2023-03-05T06:35:03.010Z,1.50
2023-03-05T06:36:03.077Z,1.40
2023-03-05T06:37:03.061Z,1.50
2023-03-05T06:38:03.080Z,1.50
2023-03-05T06:39:03.076Z,1.50
2023-03-05T06:40:03.247Z,1.50
2023-03-05T06:41:03.184Z,1.50
2023-03-05T06:42:03.173Z,1.50
2023-03-05T06:43:03.153Z,1.50
2023-03-05T06:44:03.227Z,1.50
2023-03-05T06:45:03.173Z,1.50
2023-03-05T06:46:03.326Z,1.50
2023-03-05T06:47:03.142Z,1.50
2023-03-05T06:48:03.111Z,1.50
2023-03-05T06:49:03.032Z,1.50
2023-03-05T06:50:03.113Z,1.60
2023-03-05T06:51:03.200Z,1.60
2023-03-05T06:52:03.189Z,1.60
2023-03-05T06:53:03.050Z,1.60
2023-03-05T06:54:03.116Z,1.60
2023-03-05T06:55:03.144Z,1.60
2023-03-05T06:56:03.167Z,1.60
2023-03-05T06:57:03.571Z,1.60
2023-03-05T06:58:02.719Z,1.60
2023-03-05T06:59:02.635Z,1.60
2023-03-05T07:00:02.890Z,1.70
2023-03-05T07:01:02.788Z,1.70
2023-03-05T07:02:03.001Z,1.70
2023-03-05T07:03:02.954Z,1.70
2023-03-05T07:04:02.865Z,1.70
2023-03-05T07:05:02.881Z,1.70
2023-03-05T07:06:02.880Z,1.70
2023-03-05T07:07:03.099Z,1.70
2023-03-05T07:08:03.112Z,1.70
2023-03-05T07:09:03.088Z,1.70
2023-03-05T07:10:03.101Z,1.70
2023-03-05T07:11:03.100Z,1.70
2023-03-05T07:12:03.134Z,1.70
2023-03-05T07:13:03.238Z,1.80
2023-03-05T07:14:03.396Z,1.80
2023-03-05T07:15:03.540Z,1.80
2023-03-05T07:16:03.591Z,1.80
2023-03-05T07:17:03.636Z,1.80
2023-03-05T07:18:03.533Z,1.80
2023-03-05T07:19:02.692Z,1.80
2023-03-05T07:20:02.626Z,1.80
2023-03-05T07:21:02.792Z,1.80
2023-03-05T07:22:02.787Z,1.80
2023-03-05T07:23:02.830Z,1.80
2023-03-05T07:24:02.933Z,1.80
2023-03-05T07:25:03.059Z,1.80
2023-03-05T07:26:02.997Z,1.80
2023-03-05T07:27:02.915Z,1.80
2023-03-05T07:28:02.965Z,1.80
2023-03-05T07:29:03.003Z,1.80
2023-03-05T07:30:02.856Z,1.80
2023-03-05T07:31:02.924Z,1.90
2023-03-05T07:32:02.962Z,1.80
2023-03-05T07:33:02.905Z,1.90
2023-03-05T07:34:02.949Z,1.90
2023-03-05T07:35:02.877Z,1.90
2023-03-05T07:36:02.963Z,1.90
2023-03-05T07:37:02.880Z,1.90
2023-03-05T07:38:02.981Z,1.90
2023-03-05T07:39:03.038Z,1.90
2023-03-05T07:40:03.119Z,1.90
2023-03-05T07:41:03.007Z,1.90
2023-03-05T07:42:03.120Z,1.90
2023-03-05T07:43:03.164Z,1.90
2023-03-05T07:44:03.330Z,1.90
2023-03-05T07:45:03.192Z,2.00
2023-03-05T07:46:03.328Z,2.00
2023-03-05T07:47:03.244Z,2.00
2023-03-05T07:48:03.253Z,2.00
2023-03-05T07:49:03.263Z,2.00
2023-03-05T07:50:03.270Z,2.00
2023-03-05T07:51:03.308Z,2.00
2023-03-05T07:52:03.229Z,2.00
2023-03-05T07:53:03.316Z,2.00
2023-03-05T07:54:03.441Z,2.00
2023-03-05T07:55:03.433Z,2.00
2023-03-05T07:56:03.331Z,2.00
2023-03-05T07:57:03.589Z,2.00
2023-03-05T07:58:02.654Z,2.00
2023-03-05T07:59:02.715Z,2.00
2023-03-05T08:00:02.676Z,2.00
2023-03-05T08:01:02.842Z,2.00
2023-03-05T08:02:02.866Z,2.00
2023-03-05T08:03:03.028Z,2.00
2023-03-05T08:04:03.025Z,2.00
2023-03-05T08:05:03.001Z,2.00
2023-03-05T08:06:03.017Z,2.00
2023-03-05T08:07:03.177Z,2.00
2023-03-05T08:08:03.233Z,2.00
2023-03-05T08:09:03.762Z,2.00
2023-03-05T08:10:03.268Z,2.00
2023-03-05T08:11:04.359Z,2.00
2023-03-05T08:12:03.354Z,2.00
2023-03-05T08:13:03.548Z,2.00
2023-03-05T08:14:03.474Z,2.00
2023-03-05T08:15:03.686Z,2.00
2023-03-05T08:16:03.829Z,2.00
2023-03-05T08:17:03.469Z,2.00
2023-03-05T08:18:04.089Z,2.00
2023-03-05T08:19:03.497Z,2.00
2023-03-05T08:20:02.825Z,2.00
2023-03-05T08:21:02.808Z,2.00
2023-03-05T08:22:03.121Z,2.10
2023-03-05T08:23:02.887Z,2.10
2023-03-05T08:24:02.789Z,2.10
2023-03-05T08:25:02.818Z,2.10
2023-03-05T08:26:02.864Z,2.10
2023-03-05T08:27:02.821Z,2.10
2023-03-05T08:28:02.829Z,2.10
2023-03-05T08:29:02.830Z,2.10
2023-03-05T08:30:02.766Z,2.20
2023-03-05T08:31:02.790Z,2.20
2023-03-05T08:32:02.788Z,2.20
2023-03-05T08:33:02.786Z,2.20
2023-03-05T08:34:02.861Z,2.20
2023-03-05T08:35:02.766Z,2.30
2023-03-05T08:36:02.770Z,2.30
2023-03-05T08:37:02.869Z,2.30
2023-03-05T08:38:02.939Z,2.30
2023-03-05T08:39:02.884Z,2.30
2023-03-05T08:40:02.869Z,2.30
2023-03-05T08:41:02.914Z,2.30
2023-03-05T08:42:02.788Z,2.40
2023-03-05T08:43:02.798Z,2.40
2023-03-05T08:44:02.830Z,2.40
2023-03-05T08:45:02.926Z,2.40
2023-03-05T08:46:03.006Z,2.40
2023-03-05T08:47:02.957Z,2.40
2023-03-05T08:48:02.960Z,2.40
2023-03-05T08:49:02.962Z,2.50
2023-03-05T08:50:03.104Z,2.50
2023-03-05T08:51:03.059Z,2.50
2023-03-05T08:52:03.007Z,2.50
2023-03-05T08:53:02.956Z,2.60
2023-03-05T08:54:03.028Z,2.60
2023-03-05T08:55:03.037Z,2.60
2023-03-05T08:56:03.049Z,2.60
2023-03-05T08:57:03.180Z,2.60
2023-03-05T08:58:03.222Z,2.70
2023-03-05T08:59:03.574Z,2.70
2023-03-05T09:00:03.256Z,2.70
2023-03-05T09:01:03.279Z,2.70
2023-03-05T09:02:03.417Z,2.70
2023-03-05T09:03:03.559Z,2.80
2023-03-05T09:04:03.582Z,2.80
2023-03-05T09:05:02.663Z,2.80
2023-03-05T09:06:02.771Z,2.80
2023-03-05T09:07:02.653Z,2.90
2023-03-05T09:08:02.786Z,2.90
2023-03-05T09:09:02.773Z,2.90
2023-03-05T09:10:02.910Z,2.90
2023-03-05T09:11:02.835Z,3.00
2023-03-05T09:12:02.962Z,3.00
2023-03-05T09:13:03.175Z,3.00
2023-03-05T09:14:03.132Z,3.00
2023-03-05T09:15:03.241Z,3.00
2023-03-05T09:16:03.365Z,3.00
2023-03-05T09:17:03.443Z,3.00
2023-03-05T09:18:03.499Z,3.00
2023-03-05T09:19:03.591Z,3.00
2023-03-05T09:20:02.677Z,3.00
2023-03-05T09:21:03.641Z,3.00
2023-03-05T09:22:03.678Z,3.00
2023-03-05T09:23:03.619Z,3.00
2023-03-05T09:24:03.575Z,3.00
2023-03-05T09:25:02.697Z,3.00
2023-03-05T09:26:02.756Z,3.00
2023-03-05T09:27:02.631Z,3.00
2023-03-05T09:28:02.805Z,3.00
2023-03-05T09:29:02.740Z,3.00
2023-03-05T09:30:03.081Z,3.00
2023-03-05T09:31:03.111Z,3.00
2023-03-05T09:32:03.290Z,3.10
2023-03-05T09:33:03.131Z,3.10
2023-03-05T09:34:03.289Z,3.10
2023-03-05T09:35:03.432Z,3.10
2023-03-05T09:36:03.426Z,3.10
2023-03-05T09:37:03.433Z,3.10
2023-03-05T09:38:03.499Z,3.10
2023-03-05T09:39:03.514Z,3.10
2023-03-05T09:40:03.473Z,3.00
2023-03-05T09:41:03.543Z,3.10
2023-03-05T09:42:03.599Z,3.10
2023-03-05T09:43:03.669Z,3.10
2023-03-05T09:44:03.636Z,3.10
2023-03-05T09:45:02.695Z,3.10
2023-03-05T09:46:02.740Z,3.10
2023-03-05T09:47:02.630Z,3.10
2023-03-05T09:48:02.668Z,3.10
2023-03-05T09:49:02.863Z,3.10
2023-03-05T09:50:02.848Z,3.10
2023-03-05T09:51:02.857Z,3.10
2023-03-05T09:52:02.964Z,3.10
2023-03-05T09:53:03.037Z,3.10
2023-03-05T09:54:03.256Z,3.10
2023-03-05T09:55:03.040Z,3.10
2023-03-05T09:56:03.077Z,3.10
2023-03-05T09:57:03.125Z,3.10
2023-03-05T09:58:03.137Z,3.10
2023-03-05T09:59:03.219Z,3.10
2023-03-05T10:00:03.184Z,3.20
2023-03-05T10:01:03.278Z,3.20
2023-03-05T10:02:03.224Z,3.20
2023-03-05T10:03:03.334Z,3.20
2023-03-05T10:04:03.362Z,3.20
2023-03-05T10:05:03.436Z,3.20
2023-03-05T10:06:03.437Z,3.20
2023-03-05T10:07:03.505Z,3.30
2023-03-05T10:08:03.564Z,3.30
2023-03-05T10:09:02.700Z,3.30
2023-03-05T10:10:02.697Z,3.30
2023-03-05T10:11:02.666Z,3.30
2023-03-05T10:12:02.753Z,3.30
2023-03-05T10:13:02.734Z,3.30
2023-03-05T10:14:02.710Z,3.40
2023-03-05T10:15:02.798Z,3.40
2023-03-05T10:16:02.743Z,3.40
2023-03-05T10:17:02.811Z,3.40
2023-03-05T10:18:02.808Z,3.40
2023-03-05T10:19:02.686Z,3.50
2023-03-05T10:20:02.635Z,3.50
2023-03-05T10:21:02.797Z,3.50
2023-03-05T10:22:02.683Z,3.50
2023-03-05T10:23:02.764Z,3.50
2023-03-05T10:24:02.862Z,3.50
2023-03-05T10:25:03.098Z,3.60
2023-03-05T10:26:03.134Z,3.60
2023-03-05T10:27:03.171Z,3.60
2023-03-05T10:28:03.157Z,3.60
2023-03-05T10:29:03.182Z,3.70
2023-03-05T10:30:03.134Z,3.60
2023-03-05T10:31:03.180Z,3.70
2023-03-05T10:32:03.442Z,3.70
2023-03-05T10:33:03.355Z,3.70
2023-03-05T10:34:03.489Z,3.70
2023-03-05T10:35:03.502Z,3.70
2023-03-05T10:36:03.503Z,3.70
2023-03-05T10:37:02.745Z,3.70
2023-03-05T10:38:02.991Z,3.80
2023-03-05T10:39:02.973Z,3.80
2023-03-05T10:40:02.984Z,3.80
2023-03-05T10:41:03.081Z,3.90
2023-03-05T10:42:02.977Z,3.90
2023-03-05T10:43:02.983Z,4.00
2023-03-05T10:44:03.000Z,4.00
2023-03-05T10:45:03.113Z,4.10
2023-03-05T10:46:03.280Z,4.10
2023-03-05T10:47:03.213Z,4.10
2023-03-05T10:48:03.302Z,4.10
2023-03-05T10:49:03.305Z,4.20
2023-03-05T10:50:03.264Z,4.20
2023-03-05T10:51:03.211Z,4.20
2023-03-05T10:52:03.429Z,4.20
2023-03-05T10:53:03.348Z,4.20
2023-03-05T10:54:03.514Z,4.30
2023-03-05T10:55:03.506Z,4.30
2023-03-05T10:56:02.666Z,4.30
2023-03-05T10:57:02.633Z,4.40
2023-03-05T10:58:02.721Z,4.40
2023-03-05T10:59:02.887Z,4.40
2023-03-05T11:00:02.937Z,4.50
2023-03-05T11:01:03.044Z,4.50
2023-03-05T11:02:03.061Z,4.50
2023-03-05T11:03:03.115Z,4.50
2023-03-05T11:04:03.253Z,4.50
2023-03-05T11:05:05.102Z,4.50
2023-03-05T11:06:03.233Z,4.60
2023-03-05T11:07:03.332Z,4.60
2023-03-05T11:08:03.280Z,4.60
2023-03-05T11:09:03.291Z,4.60
2023-03-05T11:10:03.229Z,4.60
2023-03-05T11:11:04.026Z,4.60
2023-03-05T11:12:03.270Z,4.60
2023-03-05T11:13:03.312Z,4.60
2023-03-05T11:14:03.425Z,4.70
2023-03-05T11:15:03.415Z,4.70
2023-03-05T11:16:03.498Z,4.70
2023-03-05T11:17:03.520Z,4.70
2023-03-05T11:18:03.389Z,4.70
2023-03-05T11:19:03.542Z,4.80
2023-03-05T11:20:02.746Z,4.80
2023-03-05T11:21:02.674Z,4.80
2023-03-05T11:22:02.745Z,4.80
2023-03-05T11:23:02.762Z,4.90
2023-03-05T11:24:02.703Z,4.90
2023-03-05T11:25:02.795Z,4.90
2023-03-05T11:26:02.800Z,4.90
2023-03-05T11:27:02.942Z,4.90
2023-03-05T11:28:02.916Z,5.00
2023-03-05T11:29:02.843Z,5.00
2023-03-05T11:30:03.025Z,5.00
2023-03-05T11:31:03.116Z,5.00
2023-03-05T11:32:03.038Z,5.00
2023-03-05T11:33:02.930Z,5.00
2023-03-05T11:34:02.987Z,5.00
2023-03-05T11:35:02.975Z,5.00
2023-03-05T11:36:02.958Z,5.00
2023-03-05T11:37:03.097Z,5.00
2023-03-05T11:38:03.220Z,5.00
2023-03-05T11:39:03.123Z,5.00
2023-03-05T11:40:03.185Z,4.90
2023-03-05T11:41:03.417Z,4.90
2023-03-05T11:42:03.290Z,4.90
2023-03-05T11:43:03.352Z,4.80
2023-03-05T11:44:03.331Z,4.80
2023-03-05T11:45:03.438Z,4.80
2023-03-05T11:46:03.669Z,4.80
2023-03-05T11:47:03.523Z,4.70
2023-03-05T11:48:03.575Z,4.70
2023-03-05T11:49:03.552Z,4.70
2023-03-05T11:50:03.467Z,4.70
2023-03-05T11:51:03.515Z,4.70
2023-03-05T11:52:02.677Z,4.70
2023-03-05T11:53:02.723Z,4.70
2023-03-05T11:54:02.769Z,4.70
2023-03-05T11:55:02.680Z,4.70
2023-03-05T11:56:02.814Z,4.60
2023-03-05T11:57:02.951Z,4.60
2023-03-05T11:58:02.906Z,4.60
2023-03-05T11:59:02.970Z,4.60
2023-03-05T12:00:02.923Z,4.60
2023-03-05T12:01:02.964Z,4.60
2023-03-05T12:02:02.868Z,4.60
2023-03-05T12:03:03.136Z,4.60
2023-03-05T12:04:03.042Z,4.60
2023-03-05T12:05:02.999Z,4.60
2023-03-05T12:06:03.093Z,4.70
2023-03-05T12:07:03.048Z,4.70
2023-03-05T12:08:03.031Z,4.70
2023-03-05T12:09:03.166Z,4.70
2023-03-05T12:10:03.245Z,4.60
2023-03-05T12:11:03.192Z,4.60
2023-03-05T12:12:03.315Z,4.60
2023-03-05T12:13:03.315Z,4.60
2023-03-05T12:14:03.308Z,4.60
2023-03-05T12:15:03.267Z,4.60
2023-03-05T12:16:03.270Z,4.60
2023-03-05T12:17:03.313Z,4.60
2023-03-05T12:18:03.357Z,4.60
2023-03-05T12:19:03.410Z,4.60
2023-03-05T12:20:03.410Z,4.60
2023-03-05T12:21:03.417Z,4.60
2023-03-05T12:22:03.476Z,4.60
2023-03-05T12:23:03.595Z,4.60
2023-03-05T12:24:03.661Z,4.60
2023-03-05T12:25:03.534Z,4.60
2023-03-05T12:26:03.700Z,4.60
2023-03-05T12:27:03.594Z,4.60
2023-03-05T12:28:02.691Z,4.60
2023-03-05T12:29:02.687Z,4.60
2023-03-05T12:30:02.650Z,4.60
2023-03-05T12:31:02.830Z,4.60
2023-03-05T12:32:02.808Z,4.60
2023-03-05T12:33:02.734Z,4.60
2023-03-05T12:34:03.410Z,4.60
2023-03-05T12:35:02.750Z,4.60
2023-03-05T12:36:02.778Z,4.60
2023-03-05T12:37:02.835Z,4.60
2023-03-05T12:38:04.410Z,4.60
2023-03-05T12:39:02.757Z,4.60
2023-03-05T12:40:02.796Z,4.60
2023-03-05T12:41:02.707Z,4.60
2023-03-05T12:42:02.775Z,4.60
2023-03-05T12:43:02.646Z,4.60
2023-03-05T12:44:02.669Z,4.60
2023-03-05T12:45:03.262Z,4.60
2023-03-05T12:46:03.338Z,4.60
2023-03-05T12:47:03.426Z,4.60
2023-03-05T12:48:03.336Z,4.60
2023-03-05T12:49:03.622Z,4.60
2023-03-05T12:50:03.244Z,4.60
2023-03-05T12:51:03.429Z,4.60
2023-03-05T12:52:03.399Z,4.60
2023-03-05T12:53:03.444Z,4.60
2023-03-05T12:54:02.935Z,4.60
2023-03-05T12:55:02.939Z,4.60
2023-03-05T12:56:02.855Z,4.60
2023-03-05T12:57:02.867Z,4.60
2023-03-05T12:58:02.854Z,4.60
2023-03-05T12:59:02.834Z,4.60
2023-03-05T13:00:02.916Z,4.60
2023-03-05T13:01:03.014Z,4.60
2023-03-05T13:02:02.891Z,4.60
2023-03-05T13:03:02.923Z,4.60
2023-03-05T13:04:03.024Z,4.70
2023-03-05T13:05:03.129Z,4.70
2023-03-05T13:06:03.311Z,4.60
2023-03-05T13:07:03.221Z,4.70
2023-03-05T13:08:03.378Z,4.60
2023-03-05T13:09:03.448Z,4.60
2023-03-05T13:10:03.372Z,4.60
2023-03-05T13:11:03.574Z,4.60
2023-03-05T13:12:03.517Z,4.60
2023-03-05T13:13:03.656Z,4.60
2023-03-05T13:14:03.573Z,4.60
2023-03-05T13:15:03.624Z,4.60
2023-03-05T13:16:03.660Z,4.60
2023-03-05T13:17:03.631Z,4.60
2023-03-05T13:18:02.700Z,4.60